IBE0103 LEMD-SAEZ
Flight info
| Callsign | IBE0103 |
|---|---|
| Flight time | N/A |
| Altitude | 33000 |
| Route | CCS DCT KOMUT/M085F340 DCT 3630N02000W 33N030W 24N040W/M085F360 DCT ROHPL/N0498F360 DCT 15N046W 10N048W DCT ARNAM/N0492F380 DCT MCP DCT KOKDO DCT VALAS UZ91 UKAGA DCT UBTAS DCT EGIMO/N0484F400 DCT VUMUB DCT FOZ UL324 IGU UP779 DOKBA UL324 KUKEN KUKEN7B |
| Aircraft | A359/H-SDE2E3GHIJ3J4J5LM1ORWXY/LB1D1 |
Departure
| Time | N/A |
|---|---|
| Airport | Adolfo Suárez Madrid–Barajas Airport (LEMD) |
Arrival
| Time | 2026-05-06 12:17 |
|---|---|
| Airport | Ezeiza International Airport - Ministro Pistarini (SAEZ) |
| Time | Latitude | Longitude | Altitude | Speed | Heading |
|---|---|---|---|---|---|
| 2026-05-06 08:36 | -9.06415 | -52.64516 | 32993 ft | 512 kts | 210° |
| 2026-05-06 08:37 | -9.09511 | -52.66298 | 32992 ft | 512 kts | 210° |
| 2026-05-06 08:37 | -9.15695 | -52.69860 | 32996 ft | 511 kts | 210° |
| 2026-05-06 08:38 | -9.21878 | -52.73422 | 32996 ft | 511 kts | 210° |
| 2026-05-06 08:38 | -9.28061 | -52.76985 | 32996 ft | 511 kts | 210° |
| 2026-05-06 08:39 | -9.34249 | -52.80553 | 32999 ft | 512 kts | 210° |
| 2026-05-06 08:39 | -9.40433 | -52.84119 | 32998 ft | 512 kts | 210° |
| 2026-05-06 08:40 | -9.46622 | -52.87691 | 32999 ft | 512 kts | 210° |
| 2026-05-06 08:40 | -9.52808 | -52.91265 | 32999 ft | 512 kts | 210° |
| 2026-05-06 08:41 | -9.58993 | -52.94837 | 33001 ft | 512 kts | 210° |
| 2026-05-06 08:41 | -9.65177 | -52.98409 | 33004 ft | 512 kts | 210° |
| 2026-05-06 08:42 | -9.71362 | -53.01984 | 33004 ft | 511 kts | 210° |
| 2026-05-06 08:42 | -9.77542 | -53.05558 | 33005 ft | 512 kts | 210° |
| 2026-05-06 08:43 | -9.83730 | -53.09139 | 33004 ft | 512 kts | 210° |
| 2026-05-06 08:43 | -9.89973 | -53.12607 | 33003 ft | 512 kts | 204° |
| 2026-05-06 08:44 | -9.96681 | -53.15016 | 33002 ft | 512 kts | 198° |
| 2026-05-06 08:44 | -10.03500 | -53.17104 | 33004 ft | 512 kts | 197° |
| 2026-05-06 08:45 | -10.10340 | -53.19138 | 33005 ft | 512 kts | 197° |
| 2026-05-06 08:45 | -10.17166 | -53.21181 | 33005 ft | 512 kts | 197° |
| 2026-05-06 08:46 | -10.23991 | -53.23239 | 33005 ft | 512 kts | 197° |
| 2026-05-06 08:46 | -10.30815 | -53.25304 | 33010 ft | 511 kts | 197° |
| 2026-05-06 08:47 | -10.37633 | -53.27368 | 33010 ft | 511 kts | 197° |
| 2026-05-06 08:47 | -10.44453 | -53.29433 | 33006 ft | 512 kts | 197° |
| 2026-05-06 08:48 | -10.51278 | -53.31500 | 33005 ft | 512 kts | 197° |
| 2026-05-06 08:48 | -10.58103 | -53.33567 | 33007 ft | 512 kts | 197° |
| 2026-05-06 08:49 | -10.64920 | -53.35634 | 33008 ft | 511 kts | 197° |
| 2026-05-06 08:49 | -10.71720 | -53.37696 | 33010 ft | 510 kts | 197° |
| 2026-05-06 08:50 | -10.78525 | -53.39761 | 33011 ft | 510 kts | 197° |
| 2026-05-06 08:50 | -10.85329 | -53.41826 | 33006 ft | 510 kts | 197° |
| 2026-05-06 08:51 | -10.92127 | -53.43891 | 33013 ft | 510 kts | 197° |
| 2026-05-06 08:51 | -10.98867 | -53.45939 | 33009 ft | 509 kts | 197° |
| 2026-05-06 08:52 | -11.05701 | -53.48016 | 33012 ft | 509 kts | 197° |
| 2026-05-06 08:52 | -11.12435 | -53.50064 | 33011 ft | 509 kts | 197° |
| 2026-05-06 08:53 | -11.19215 | -53.52128 | 33013 ft | 508 kts | 197° |
| 2026-05-06 08:53 | -11.25991 | -53.54190 | 33012 ft | 507 kts | 197° |
| 2026-05-06 08:54 | -11.32738 | -53.56245 | 33015 ft | 506 kts | 197° |
| 2026-05-06 08:54 | -11.38389 | -53.57967 | 33015 ft | 506 kts | 197° |
| 2026-05-06 08:55 | -11.45136 | -53.60024 | 33015 ft | 506 kts | 197° |
| 2026-05-06 08:55 | -11.51876 | -53.62080 | 33015 ft | 506 kts | 197° |
| 2026-05-06 08:56 | -11.58619 | -53.64138 | 33020 ft | 506 kts | 197° |
| 2026-05-06 08:56 | -11.65356 | -53.66195 | 33017 ft | 505 kts | 197° |
| 2026-05-06 08:57 | -11.72088 | -53.68251 | 33020 ft | 505 kts | 197° |
| 2026-05-06 08:57 | -11.78824 | -53.70310 | 33018 ft | 505 kts | 197° |
| 2026-05-06 08:58 | -11.85553 | -53.72368 | 33016 ft | 505 kts | 197° |
| 2026-05-06 08:58 | -11.92297 | -53.74431 | 33019 ft | 506 kts | 197° |
| 2026-05-06 08:59 | -11.99038 | -53.76494 | 33018 ft | 506 kts | 197° |
| 2026-05-06 08:59 | -12.05782 | -53.78560 | 33019 ft | 506 kts | 197° |
| 2026-05-06 09:00 | -12.12525 | -53.80626 | 33019 ft | 506 kts | 197° |
| 2026-05-06 09:00 | -12.19266 | -53.82693 | 33021 ft | 506 kts | 196° |
| 2026-05-06 09:01 | -12.26002 | -53.84759 | 33022 ft | 505 kts | 196° |
| 2026-05-06 09:01 | -12.32694 | -53.86813 | 33021 ft | 506 kts | 196° |
| 2026-05-06 09:02 | -12.39435 | -53.88883 | 33020 ft | 506 kts | 196° |
| 2026-05-06 09:02 | -12.46175 | -53.90954 | 33020 ft | 506 kts | 196° |
| 2026-05-06 09:03 | -12.52915 | -53.93025 | 33020 ft | 506 kts | 196° |
| 2026-05-06 09:03 | -12.59658 | -53.95099 | 33020 ft | 506 kts | 196° |
| 2026-05-06 09:04 | -12.66400 | -53.97174 | 33021 ft | 506 kts | 196° |
| 2026-05-06 09:04 | -12.73141 | -53.99250 | 33020 ft | 506 kts | 196° |
| 2026-05-06 09:05 | -12.79881 | -54.01326 | 33022 ft | 506 kts | 196° |
| 2026-05-06 09:05 | -12.86614 | -54.03402 | 33020 ft | 506 kts | 196° |
| 2026-05-06 09:06 | -12.93355 | -54.05482 | 33032 ft | 506 kts | 196° |
| 2026-05-06 09:06 | -13.00111 | -54.07567 | 33067 ft | 508 kts | 196° |
| 2026-05-06 09:07 | -13.06881 | -54.09657 | 33071 ft | 508 kts | 197° |
| 2026-05-06 09:07 | -13.13648 | -54.11747 | 33076 ft | 508 kts | 197° |
| 2026-05-06 09:08 | -13.20413 | -54.13839 | 33077 ft | 507 kts | 197° |
| 2026-05-06 09:08 | -13.27174 | -54.15931 | 33073 ft | 507 kts | 197° |
| 2026-05-06 09:09 | -13.33929 | -54.18021 | 33078 ft | 507 kts | 197° |
| 2026-05-06 09:09 | -13.40687 | -54.20114 | 33088 ft | 507 kts | 197° |
| 2026-05-06 09:10 | -13.47431 | -54.22203 | 33087 ft | 506 kts | 197° |
| 2026-05-06 09:10 | -13.54168 | -54.24292 | 33091 ft | 506 kts | 197° |
| 2026-05-06 09:11 | -13.60906 | -54.26383 | 33091 ft | 506 kts | 197° |
| 2026-05-06 09:11 | -13.67652 | -54.28477 | 33088 ft | 506 kts | 197° |
| 2026-05-06 09:12 | -13.74389 | -54.30570 | 33096 ft | 505 kts | 197° |
| 2026-05-06 09:12 | -13.81122 | -54.32662 | 33093 ft | 505 kts | 197° |
| 2026-05-06 09:13 | -13.87845 | -54.34753 | 33094 ft | 505 kts | 197° |
| 2026-05-06 09:13 | -13.94572 | -54.36846 | 33094 ft | 505 kts | 197° |
| 2026-05-06 09:14 | -14.01302 | -54.38942 | 33094 ft | 505 kts | 197° |
| 2026-05-06 09:14 | -14.07966 | -54.41018 | 33096 ft | 504 kts | 197° |
| 2026-05-06 09:15 | -14.14716 | -54.43121 | 33096 ft | 503 kts | 197° |
| 2026-05-06 09:15 | -14.21377 | -54.45200 | 33103 ft | 503 kts | 197° |
| 2026-05-06 09:16 | -14.28118 | -54.47145 | 33102 ft | 503 kts | 191° |
| 2026-05-06 09:16 | -14.35081 | -54.47928 | 33106 ft | 504 kts | 185° |
| 2026-05-06 09:17 | -14.42080 | -54.48402 | 33111 ft | 504 kts | 184° |
| 2026-05-06 09:17 | -14.49077 | -54.48826 | 33113 ft | 504 kts | 184° |
| 2026-05-06 09:18 | -14.56076 | -54.49262 | 33117 ft | 504 kts | 184° |
| 2026-05-06 09:18 | -14.63070 | -54.49713 | 33125 ft | 503 kts | 185° |
| 2026-05-06 09:19 | -14.70056 | -54.50168 | 33130 ft | 503 kts | 184° |
| 2026-05-06 09:19 | -14.77037 | -54.50622 | 33132 ft | 502 kts | 184° |
| 2026-05-06 09:20 | -14.84016 | -54.51077 | 33133 ft | 502 kts | 184° |
| 2026-05-06 09:20 | -14.90993 | -54.51532 | 33140 ft | 502 kts | 185° |
| 2026-05-06 09:21 | -14.97972 | -54.51987 | 33144 ft | 502 kts | 185° |
| 2026-05-06 09:21 | -15.04941 | -54.52441 | 33141 ft | 502 kts | 185° |
| 2026-05-06 09:22 | -15.11911 | -54.52896 | 33140 ft | 502 kts | 185° |
| 2026-05-06 09:22 | -15.18882 | -54.53351 | 33143 ft | 502 kts | 185° |
| 2026-05-06 09:23 | -15.25842 | -54.53805 | 33144 ft | 501 kts | 185° |
| 2026-05-06 09:23 | -15.32802 | -54.54260 | 33147 ft | 501 kts | 185° |
| 2026-05-06 09:24 | -15.39753 | -54.54715 | 33143 ft | 501 kts | 185° |
| 2026-05-06 09:24 | -15.46709 | -54.55171 | 33141 ft | 501 kts | 185° |
| 2026-05-06 09:25 | -15.53658 | -54.55626 | 33146 ft | 501 kts | 185° |
| 2026-05-06 09:25 | -15.60612 | -54.56082 | 33136 ft | 501 kts | 185° |
| 2026-05-06 09:26 | -15.67564 | -54.56538 | 33147 ft | 501 kts | 185° |
| 2026-05-06 09:26 | -15.74515 | -54.56995 | 33144 ft | 501 kts | 185° |
| 2026-05-06 09:27 | -15.81468 | -54.57451 | 33137 ft | 500 kts | 185° |
| 2026-05-06 09:27 | -15.88402 | -54.57907 | 33136 ft | 500 kts | 185° |
| 2026-05-06 09:28 | -15.95343 | -54.58363 | 33132 ft | 499 kts | 185° |
| 2026-05-06 09:28 | -16.02277 | -54.58820 | 33128 ft | 499 kts | 185° |
| 2026-05-06 09:29 | -16.09168 | -54.59274 | 33129 ft | 499 kts | 185° |
| 2026-05-06 09:29 | -16.16092 | -54.59730 | 33128 ft | 498 kts | 185° |
| 2026-05-06 09:30 | -16.23010 | -54.60186 | 33130 ft | 498 kts | 185° |
| 2026-05-06 09:30 | -16.29935 | -54.60643 | 33129 ft | 498 kts | 185° |
| 2026-05-06 09:31 | -16.36849 | -54.61100 | 33127 ft | 498 kts | 185° |
| 2026-05-06 09:31 | -16.43768 | -54.61557 | 33129 ft | 498 kts | 185° |
| 2026-05-06 09:32 | -16.50690 | -54.62015 | 33130 ft | 498 kts | 185° |
| 2026-05-06 09:32 | -16.57602 | -54.62473 | 33134 ft | 498 kts | 185° |
| 2026-05-06 09:33 | -16.64525 | -54.62932 | 33129 ft | 498 kts | 185° |
| 2026-05-06 09:33 | -16.71439 | -54.63390 | 33144 ft | 498 kts | 184° |
| 2026-05-06 09:34 | -16.78348 | -54.63848 | 33131 ft | 498 kts | 184° |
| 2026-05-06 09:34 | -16.85264 | -54.64308 | 33139 ft | 498 kts | 185° |
| 2026-05-06 09:35 | -16.92171 | -54.64766 | 33134 ft | 498 kts | 184° |
| 2026-05-06 09:35 | -16.99078 | -54.65225 | 33140 ft | 497 kts | 185° |
| 2026-05-06 09:36 | -17.05973 | -54.65684 | 33147 ft | 496 kts | 185° |
| 2026-05-06 09:36 | -17.12865 | -54.66143 | 33146 ft | 496 kts | 185° |
| 2026-05-06 09:37 | -17.19766 | -54.66603 | 33139 ft | 496 kts | 185° |
| 2026-05-06 09:37 | -17.26656 | -54.67063 | 33146 ft | 495 kts | 185° |
| 2026-05-06 09:38 | -17.33531 | -54.67521 | 33151 ft | 495 kts | 185° |
| 2026-05-06 09:38 | -17.39245 | -54.67903 | 33148 ft | 495 kts | 185° |
| 2026-05-06 09:39 | -17.46119 | -54.68362 | 33151 ft | 495 kts | 185° |
| 2026-05-06 09:39 | -17.52992 | -54.68822 | 33147 ft | 495 kts | 185° |
| 2026-05-06 09:40 | -17.59853 | -54.68353 | 33153 ft | 497 kts | 171° |
| 2026-05-06 09:40 | -17.69999 | -54.66014 | 33144 ft | 498 kts | 168° |
| 2026-05-06 09:41 | -17.76737 | -54.64321 | 33150 ft | 498 kts | 168° |
| 2026-05-06 09:41 | -17.83477 | -54.62641 | 33154 ft | 498 kts | 169° |
| 2026-05-06 09:42 | -17.90221 | -54.60978 | 33159 ft | 498 kts | 169° |
| 2026-05-06 09:42 | -17.96961 | -54.59320 | 33155 ft | 498 kts | 169° |
| 2026-05-06 09:43 | -18.03705 | -54.57660 | 33154 ft | 497 kts | 169° |
| 2026-05-06 09:43 | -18.10443 | -54.56000 | 33156 ft | 498 kts | 169° |
| 2026-05-06 09:44 | -18.17186 | -54.54337 | 33161 ft | 498 kts | 169° |
| 2026-05-06 09:44 | -18.23928 | -54.52673 | 33165 ft | 498 kts | 169° |
| 2026-05-06 09:45 | -18.30664 | -54.51008 | 33157 ft | 498 kts | 169° |
| 2026-05-06 09:45 | -18.37408 | -54.49341 | 33158 ft | 497 kts | 169° |
| 2026-05-06 09:46 | -18.44138 | -54.47675 | 33159 ft | 497 kts | 169° |
| 2026-05-06 09:46 | -18.50863 | -54.46010 | 33165 ft | 497 kts | 169° |
| 2026-05-06 09:47 | -18.57548 | -54.44353 | 33167 ft | 497 kts | 169° |
| 2026-05-06 09:47 | -18.64315 | -54.42674 | 33170 ft | 497 kts | 169° |
| 2026-05-06 09:48 | -18.71043 | -54.41004 | 33170 ft | 497 kts | 169° |
| 2026-05-06 09:48 | -18.77768 | -54.39333 | 33168 ft | 497 kts | 169° |
| 2026-05-06 09:49 | -18.84491 | -54.37661 | 33175 ft | 497 kts | 169° |
| 2026-05-06 09:49 | -18.91216 | -54.35987 | 33190 ft | 496 kts | 169° |
| 2026-05-06 09:50 | -18.97944 | -54.34312 | 33195 ft | 496 kts | 169° |
| 2026-05-06 09:50 | -19.04667 | -54.32636 | 33191 ft | 496 kts | 169° |
| 2026-05-06 09:51 | -19.11385 | -54.30959 | 33198 ft | 496 kts | 169° |
| 2026-05-06 09:51 | -19.18059 | -54.29293 | 33194 ft | 496 kts | 169° |
| 2026-05-06 09:52 | -19.24774 | -54.27615 | 33196 ft | 496 kts | 169° |
| 2026-05-06 09:52 | -19.31492 | -54.25935 | 33200 ft | 496 kts | 169° |
| 2026-05-06 09:53 | -19.38210 | -54.24253 | 33205 ft | 496 kts | 170° |
| 2026-05-06 09:53 | -19.44919 | -54.22572 | 33208 ft | 495 kts | 170° |
| 2026-05-06 09:54 | -19.51619 | -54.20892 | 33199 ft | 495 kts | 170° |
| 2026-05-06 09:54 | -19.58324 | -54.19208 | 33206 ft | 495 kts | 170° |
| 2026-05-06 09:55 | -19.65026 | -54.17525 | 33217 ft | 495 kts | 170° |
| 2026-05-06 09:55 | -19.71729 | -54.15840 | 33219 ft | 495 kts | 170° |
| 2026-05-06 09:56 | -19.78433 | -54.14154 | 33215 ft | 495 kts | 170° |
| 2026-05-06 09:56 | -19.85134 | -54.12466 | 33215 ft | 495 kts | 170° |
| 2026-05-06 09:57 | -19.91841 | -54.10775 | 33223 ft | 495 kts | 170° |
| 2026-05-06 09:57 | -19.98547 | -54.09084 | 33221 ft | 496 kts | 170° |
| 2026-05-06 09:58 | -20.05261 | -54.07389 | 33222 ft | 496 kts | 170° |
| 2026-05-06 09:58 | -20.11972 | -54.05692 | 33219 ft | 496 kts | 170° |
| 2026-05-06 09:59 | -20.18685 | -54.03994 | 33230 ft | 496 kts | 170° |
| 2026-05-06 09:59 | -20.25401 | -54.02294 | 33223 ft | 496 kts | 170° |
| 2026-05-06 10:00 | -20.32119 | -54.00592 | 33219 ft | 496 kts | 170° |
| 2026-05-06 10:00 | -20.38832 | -53.98889 | 33226 ft | 496 kts | 170° |
| 2026-05-06 10:01 | -20.45534 | -53.97187 | 33228 ft | 495 kts | 171° |
| 2026-05-06 10:01 | -20.52242 | -53.95483 | 33227 ft | 495 kts | 170° |
| 2026-05-06 10:02 | -20.58942 | -53.93780 | 33227 ft | 495 kts | 171° |
| 2026-05-06 10:02 | -20.65601 | -53.92085 | 33232 ft | 495 kts | 170° |
| 2026-05-06 10:03 | -20.72303 | -53.90377 | 33241 ft | 495 kts | 171° |
| 2026-05-06 10:03 | -20.79011 | -53.88667 | 33234 ft | 495 kts | 171° |
| 2026-05-06 10:04 | -20.85712 | -53.86957 | 33237 ft | 495 kts | 171° |
| 2026-05-06 10:04 | -20.92421 | -53.85243 | 33235 ft | 495 kts | 171° |
| 2026-05-06 10:05 | -20.99128 | -53.83528 | 33242 ft | 496 kts | 171° |
| 2026-05-06 10:05 | -21.05831 | -53.81812 | 33236 ft | 496 kts | 171° |
| 2026-05-06 10:06 | -21.12541 | -53.80093 | 33231 ft | 496 kts | 171° |
| 2026-05-06 10:06 | -21.19246 | -53.78374 | 33240 ft | 495 kts | 171° |
| 2026-05-06 10:07 | -21.25948 | -53.76653 | 33242 ft | 495 kts | 171° |
| 2026-05-06 10:07 | -21.32657 | -53.74930 | 33240 ft | 495 kts | 171° |
| 2026-05-06 10:08 | -21.39356 | -53.73208 | 33249 ft | 495 kts | 171° |
| 2026-05-06 10:08 | -21.46047 | -53.71485 | 33258 ft | 494 kts | 171° |
| 2026-05-06 10:09 | -21.52729 | -53.69764 | 33251 ft | 494 kts | 171° |
| 2026-05-06 10:09 | -21.59412 | -53.68049 | 33250 ft | 493 kts | 172° |
| 2026-05-06 10:10 | -21.66148 | -53.67454 | 33251 ft | 483 kts | 187° |
| 2026-05-06 10:10 | -21.72767 | -53.68487 | 33255 ft | 480 kts | 193° |
| 2026-05-06 10:11 | -21.79328 | -53.69845 | 33249 ft | 480 kts | 194° |
| 2026-05-06 10:11 | -21.85874 | -53.71243 | 33253 ft | 480 kts | 194° |
| 2026-05-06 10:12 | -21.92434 | -53.72619 | 33255 ft | 480 kts | 194° |
| 2026-05-06 10:12 | -21.98993 | -53.73977 | 33269 ft | 480 kts | 194° |
| 2026-05-06 10:13 | -22.05551 | -53.75332 | 33260 ft | 480 kts | 194° |
| 2026-05-06 10:13 | -22.12112 | -53.76689 | 33260 ft | 480 kts | 194° |
| 2026-05-06 10:14 | -22.18675 | -53.78050 | 33260 ft | 480 kts | 194° |
| 2026-05-06 10:14 | -22.25240 | -53.79412 | 33276 ft | 480 kts | 194° |
| 2026-05-06 10:15 | -22.31796 | -53.80773 | 33271 ft | 479 kts | 194° |
| 2026-05-06 10:15 | -22.38350 | -53.82101 | 33276 ft | 479 kts | 192° |
| 2026-05-06 10:16 | -22.44910 | -53.83354 | 33268 ft | 479 kts | 192° |
| 2026-05-06 10:16 | -22.51403 | -53.84651 | 33609 ft | 472 kts | 193° |
| 2026-05-06 10:17 | -22.54600 | -53.85305 | 34194 ft | 463 kts | 193° |
| 2026-05-06 10:17 | -22.57746 | -53.85954 | 34613 ft | 459 kts | 193° |
| 2026-05-06 10:17 | -22.60876 | -53.86603 | 34888 ft | 458 kts | 193° |
| 2026-05-06 10:17 | -22.63998 | -53.87253 | 35143 ft | 457 kts | 193° |
| 2026-05-06 10:18 | -22.67122 | -53.87905 | 35390 ft | 456 kts | 193° |
| 2026-05-06 10:18 | -22.70234 | -53.88556 | 35629 ft | 456 kts | 193° |
| 2026-05-06 10:18 | -22.73347 | -53.89206 | 35873 ft | 455 kts | 193° |
| 2026-05-06 10:18 | -22.76457 | -53.89856 | 36107 ft | 455 kts | 193° |
| 2026-05-06 10:19 | -22.79561 | -53.90504 | 36330 ft | 454 kts | 194° |
| 2026-05-06 10:19 | -22.82661 | -53.91152 | 36572 ft | 453 kts | 194° |
| 2026-05-06 10:19 | -22.85755 | -53.91800 | 36798 ft | 452 kts | 194° |
| 2026-05-06 10:19 | -22.88848 | -53.92449 | 37005 ft | 452 kts | 194° |
| 2026-05-06 10:20 | -22.91934 | -53.93097 | 37215 ft | 452 kts | 194° |
| 2026-05-06 10:20 | -22.95013 | -53.93744 | 37423 ft | 451 kts | 194° |
| 2026-05-06 10:20 | -22.98088 | -53.94390 | 37610 ft | 451 kts | 194° |
| 2026-05-06 10:20 | -23.01166 | -53.95038 | 37793 ft | 450 kts | 194° |
| 2026-05-06 10:21 | -23.04240 | -53.95685 | 37978 ft | 450 kts | 194° |
| 2026-05-06 10:21 | -23.07312 | -53.96331 | 38108 ft | 450 kts | 194° |
| 2026-05-06 10:21 | -23.13446 | -53.97621 | 38095 ft | 447 kts | 194° |
| 2026-05-06 10:22 | -23.19550 | -53.98906 | 38094 ft | 447 kts | 194° |
| 2026-05-06 10:22 | -23.25617 | -54.00185 | 38097 ft | 448 kts | 194° |
| 2026-05-06 10:23 | -23.31737 | -54.01476 | 38102 ft | 449 kts | 194° |
| 2026-05-06 10:23 | -23.37869 | -54.02769 | 38098 ft | 448 kts | 194° |
| 2026-05-06 10:24 | -23.43994 | -54.04062 | 38097 ft | 448 kts | 194° |
| 2026-05-06 10:24 | -23.50108 | -54.05354 | 38097 ft | 448 kts | 194° |
| 2026-05-06 10:25 | -23.56230 | -54.06650 | 38098 ft | 448 kts | 194° |
| 2026-05-06 10:25 | -23.61317 | -54.07727 | 38096 ft | 448 kts | 194° |
| 2026-05-06 10:26 | -23.67430 | -54.09023 | 38097 ft | 448 kts | 194° |
| 2026-05-06 10:26 | -23.73554 | -54.10322 | 38095 ft | 448 kts | 194° |
| 2026-05-06 10:27 | -23.79676 | -54.11622 | 38093 ft | 448 kts | 194° |
| 2026-05-06 10:27 | -23.85797 | -54.12922 | 38095 ft | 448 kts | 194° |
| 2026-05-06 10:28 | -23.91912 | -54.14223 | 38096 ft | 447 kts | 194° |
| 2026-05-06 10:28 | -23.98016 | -54.15523 | 38096 ft | 446 kts | 194° |
| 2026-05-06 10:29 | -24.04114 | -54.16823 | 38226 ft | 447 kts | 194° |
| 2026-05-06 10:29 | -24.07162 | -54.17474 | 38408 ft | 446 kts | 194° |
| 2026-05-06 10:29 | -24.10207 | -54.18124 | 38577 ft | 445 kts | 194° |
| 2026-05-06 10:30 | -24.13247 | -54.18774 | 38738 ft | 445 kts | 194° |
| 2026-05-06 10:30 | -24.16283 | -54.19424 | 38876 ft | 444 kts | 194° |
| 2026-05-06 10:30 | -24.19314 | -54.20072 | 39020 ft | 444 kts | 195° |
| 2026-05-06 10:30 | -24.22344 | -54.20721 | 39151 ft | 443 kts | 195° |
| 2026-05-06 10:31 | -24.25368 | -54.21369 | 39278 ft | 443 kts | 195° |
| 2026-05-06 10:31 | -24.28391 | -54.22017 | 39382 ft | 443 kts | 195° |
| 2026-05-06 10:31 | -24.34448 | -54.23317 | 39585 ft | 443 kts | 195° |
| 2026-05-06 10:32 | -24.40500 | -54.24617 | 39771 ft | 443 kts | 195° |
| 2026-05-06 10:32 | -24.46565 | -54.25919 | 39940 ft | 444 kts | 195° |
| 2026-05-06 10:33 | -24.49598 | -54.26570 | 40058 ft | 444 kts | 195° |
| 2026-05-06 10:33 | -24.52631 | -54.27222 | 40098 ft | 444 kts | 195° |
| 2026-05-06 10:33 | -24.58689 | -54.28526 | 40094 ft | 444 kts | 195° |
| 2026-05-06 10:34 | -24.64746 | -54.29830 | 40094 ft | 443 kts | 195° |
| 2026-05-06 10:34 | -24.70798 | -54.31135 | 40096 ft | 443 kts | 195° |
| 2026-05-06 10:35 | -24.76855 | -54.32441 | 40097 ft | 444 kts | 195° |
| 2026-05-06 10:35 | -24.82915 | -54.33750 | 40099 ft | 444 kts | 195° |
| 2026-05-06 10:36 | -24.88976 | -54.35060 | 40082 ft | 444 kts | 195° |
| 2026-05-06 10:36 | -24.94998 | -54.36362 | 40092 ft | 444 kts | 195° |
| 2026-05-06 10:37 | -25.01059 | -54.37674 | 40090 ft | 444 kts | 196° |
| 2026-05-06 10:37 | -25.07116 | -54.38987 | 40089 ft | 444 kts | 196° |
| 2026-05-06 10:38 | -25.13171 | -54.40301 | 40086 ft | 443 kts | 196° |
| 2026-05-06 10:38 | -25.19224 | -54.41616 | 40086 ft | 444 kts | 196° |
| 2026-05-06 10:39 | -25.25286 | -54.42934 | 40086 ft | 444 kts | 196° |
| 2026-05-06 10:39 | -25.31339 | -54.44251 | 40081 ft | 443 kts | 196° |
| 2026-05-06 10:40 | -25.37387 | -54.45569 | 40079 ft | 443 kts | 196° |
| 2026-05-06 10:40 | -25.43429 | -54.46886 | 40079 ft | 443 kts | 196° |
| 2026-05-06 10:41 | -25.49473 | -54.48207 | 40076 ft | 443 kts | 196° |
| 2026-05-06 10:41 | -25.55525 | -54.49499 | 40084 ft | 444 kts | 194° |
| 2026-05-06 10:42 | -25.61770 | -54.49709 | 40068 ft | 455 kts | 182° |
| 2026-05-06 10:42 | -25.68104 | -54.49079 | 40097 ft | 458 kts | 181° |
| 2026-05-06 10:43 | -25.74373 | -54.49264 | 40103 ft | 445 kts | 195° |
| 2026-05-06 10:44 | -25.83127 | -54.52217 | 40103 ft | 436 kts | 204° |
| 2026-05-06 10:44 | -25.88799 | -54.54560 | 40098 ft | 435 kts | 205° |
| 2026-05-06 10:45 | -25.94469 | -54.56920 | 40085 ft | 435 kts | 205° |
| 2026-05-06 10:45 | -26.00139 | -54.59257 | 40086 ft | 435 kts | 205° |
| 2026-05-06 10:46 | -26.05823 | -54.61588 | 40085 ft | 435 kts | 205° |
| 2026-05-06 10:46 | -26.11500 | -54.63915 | 40083 ft | 435 kts | 205° |
| 2026-05-06 10:47 | -26.17167 | -54.66242 | 40079 ft | 434 kts | 205° |
| 2026-05-06 10:47 | -26.22832 | -54.68570 | 40077 ft | 434 kts | 205° |
| 2026-05-06 10:48 | -26.28533 | -54.70800 | 40080 ft | 435 kts | 203° |
| 2026-05-06 10:48 | -26.34299 | -54.72893 | 40080 ft | 436 kts | 202° |
| 2026-05-06 10:49 | -26.40071 | -54.74996 | 40081 ft | 436 kts | 203° |
| 2026-05-06 10:49 | -26.45833 | -54.77127 | 40079 ft | 437 kts | 203° |
| 2026-05-06 10:50 | -26.51599 | -54.79275 | 40076 ft | 437 kts | 203° |
| 2026-05-06 10:50 | -26.57365 | -54.81429 | 40076 ft | 437 kts | 203° |
| 2026-05-06 10:51 | -26.63084 | -54.83699 | 40094 ft | 436 kts | 205° |
| 2026-05-06 10:51 | -26.68755 | -54.86071 | 40074 ft | 435 kts | 205° |
| 2026-05-06 10:52 | -26.74427 | -54.88437 | 40077 ft | 435 kts | 205° |
| 2026-05-06 10:52 | -26.80099 | -54.90782 | 40078 ft | 435 kts | 205° |
| 2026-05-06 10:53 | -26.85781 | -54.93123 | 40075 ft | 435 kts | 205° |
| 2026-05-06 10:53 | -26.91452 | -54.95463 | 40093 ft | 435 kts | 205° |
| 2026-05-06 10:54 | -26.97128 | -54.97805 | 40072 ft | 434 kts | 205° |
| 2026-05-06 10:54 | -27.02800 | -55.00152 | 40072 ft | 434 kts | 205° |
| 2026-05-06 10:55 | -27.08470 | -55.02501 | 40073 ft | 435 kts | 206° |
| 2026-05-06 10:55 | -27.14147 | -55.04852 | 40072 ft | 435 kts | 206° |
| 2026-05-06 10:56 | -27.19784 | -55.07190 | 40081 ft | 435 kts | 206° |
| 2026-05-06 10:56 | -27.25462 | -55.09547 | 40067 ft | 435 kts | 206° |
| 2026-05-06 10:57 | -27.31130 | -55.11904 | 40070 ft | 434 kts | 206° |
| 2026-05-06 10:57 | -27.36793 | -55.14262 | 40069 ft | 434 kts | 206° |
| 2026-05-06 10:58 | -27.42456 | -55.16622 | 40061 ft | 434 kts | 206° |
| 2026-05-06 10:58 | -27.48118 | -55.18985 | 40075 ft | 435 kts | 206° |
| 2026-05-06 10:59 | -27.53791 | -55.21353 | 40059 ft | 434 kts | 206° |
| 2026-05-06 10:59 | -27.59451 | -55.23719 | 40059 ft | 434 kts | 206° |
| 2026-05-06 11:00 | -27.65114 | -55.26088 | 40057 ft | 434 kts | 206° |
| 2026-05-06 11:00 | -27.70776 | -55.28462 | 40057 ft | 435 kts | 206° |
| 2026-05-06 11:01 | -27.76447 | -55.30841 | 40065 ft | 435 kts | 206° |
| 2026-05-06 11:01 | -27.82116 | -55.33221 | 40048 ft | 435 kts | 207° |
| 2026-05-06 11:02 | -27.87783 | -55.35603 | 40048 ft | 434 kts | 206° |
| 2026-05-06 11:02 | -27.93451 | -55.37989 | 40042 ft | 435 kts | 206° |
| 2026-05-06 11:03 | -27.99115 | -55.40376 | 40040 ft | 435 kts | 206° |
| 2026-05-06 11:03 | -28.04784 | -55.42766 | 40040 ft | 435 kts | 207° |
| 2026-05-06 11:04 | -28.10449 | -55.45157 | 40051 ft | 434 kts | 207° |
| 2026-05-06 11:04 | -28.16096 | -55.47570 | 40031 ft | 434 kts | 207° |
| 2026-05-06 11:05 | -28.21741 | -55.49996 | 40033 ft | 434 kts | 207° |
| 2026-05-06 11:05 | -28.27382 | -55.52421 | 40040 ft | 434 kts | 207° |
| 2026-05-06 11:06 | -28.33026 | -55.54851 | 40041 ft | 434 kts | 207° |
| 2026-05-06 11:06 | -28.38669 | -55.57278 | 40032 ft | 434 kts | 207° |
| 2026-05-06 11:07 | -28.44317 | -55.59713 | 40028 ft | 434 kts | 207° |
| 2026-05-06 11:07 | -28.49967 | -55.62143 | 40022 ft | 434 kts | 207° |
| 2026-05-06 11:08 | -28.55615 | -55.64575 | 40026 ft | 434 kts | 207° |
| 2026-05-06 11:08 | -28.61248 | -55.67030 | 40035 ft | 433 kts | 208° |
| 2026-05-06 11:09 | -28.66874 | -55.69495 | 40022 ft | 433 kts | 208° |
| 2026-05-06 11:09 | -28.71543 | -55.71545 | 40023 ft | 433 kts | 208° |
| 2026-05-06 11:10 | -28.77164 | -55.74012 | 40024 ft | 433 kts | 208° |
| 2026-05-06 11:10 | -28.82783 | -55.76481 | 40022 ft | 433 kts | 208° |
| 2026-05-06 11:11 | -28.88403 | -55.78952 | 40032 ft | 433 kts | 208° |
| 2026-05-06 11:11 | -28.94025 | -55.81428 | 40020 ft | 433 kts | 208° |
| 2026-05-06 11:12 | -28.99652 | -55.83908 | 40020 ft | 433 kts | 208° |
| 2026-05-06 11:12 | -29.05275 | -55.86389 | 40018 ft | 433 kts | 208° |
| 2026-05-06 11:13 | -29.10901 | -55.88876 | 40021 ft | 433 kts | 208° |
| 2026-05-06 11:13 | -29.16520 | -55.91361 | 40020 ft | 433 kts | 208° |
| 2026-05-06 11:14 | -29.22144 | -55.93852 | 40018 ft | 433 kts | 208° |
| 2026-05-06 11:14 | -29.27760 | -55.96343 | 40017 ft | 433 kts | 208° |
| 2026-05-06 11:15 | -29.33382 | -55.98839 | 40012 ft | 433 kts | 208° |
| 2026-05-06 11:15 | -29.38999 | -56.01335 | 40011 ft | 433 kts | 208° |
| 2026-05-06 11:16 | -29.44618 | -56.03834 | 40008 ft | 433 kts | 209° |
| 2026-05-06 11:16 | -29.50228 | -56.06333 | 40009 ft | 432 kts | 209° |
| 2026-05-06 11:17 | -29.55830 | -56.08833 | 40007 ft | 432 kts | 209° |
| 2026-05-06 11:17 | -29.61443 | -56.11340 | 40005 ft | 432 kts | 209° |
| 2026-05-06 11:18 | -29.67052 | -56.13848 | 40003 ft | 432 kts | 209° |
| 2026-05-06 11:18 | -29.72657 | -56.16357 | 40009 ft | 432 kts | 209° |
| 2026-05-06 11:19 | -29.78259 | -56.18868 | 40006 ft | 432 kts | 209° |
| 2026-05-06 11:19 | -29.83856 | -56.21380 | 40007 ft | 432 kts | 209° |
| 2026-05-06 11:20 | -29.89459 | -56.23898 | 40007 ft | 432 kts | 209° |
| 2026-05-06 11:20 | -29.95059 | -56.26416 | 40011 ft | 432 kts | 209° |
| 2026-05-06 11:21 | -30.00625 | -56.28925 | 40013 ft | 432 kts | 210° |
| 2026-05-06 11:21 | -30.06225 | -56.31450 | 40002 ft | 433 kts | 210° |
| 2026-05-06 11:22 | -30.11836 | -56.33983 | 40003 ft | 433 kts | 210° |
| 2026-05-06 11:22 | -30.17457 | -56.36523 | 40002 ft | 433 kts | 210° |
| 2026-05-06 11:23 | -30.23073 | -56.39064 | 40002 ft | 434 kts | 210° |
| 2026-05-06 11:23 | -30.28693 | -56.41609 | 39999 ft | 434 kts | 210° |
| 2026-05-06 11:24 | -30.34309 | -56.44157 | 39998 ft | 433 kts | 210° |
| 2026-05-06 11:24 | -30.39928 | -56.46710 | 39998 ft | 434 kts | 210° |
| 2026-05-06 11:25 | -30.45591 | -56.49163 | 39999 ft | 435 kts | 208° |
| 2026-05-06 11:25 | -30.51289 | -56.51556 | 39998 ft | 436 kts | 208° |
| 2026-05-06 11:26 | -30.56979 | -56.53965 | 39998 ft | 435 kts | 209° |
| 2026-05-06 11:26 | -30.62661 | -56.56393 | 39994 ft | 435 kts | 209° |
| 2026-05-06 11:27 | -30.68302 | -56.58887 | 40001 ft | 432 kts | 214° |
| 2026-05-06 11:27 | -30.73874 | -56.61558 | 39995 ft | 433 kts | 214° |
| 2026-05-06 11:28 | -30.79466 | -56.64201 | 40000 ft | 435 kts | 214° |
| 2026-05-06 11:28 | -30.85104 | -56.66771 | 39992 ft | 436 kts | 213° |
| 2026-05-06 11:29 | -30.90763 | -56.69308 | 39989 ft | 436 kts | 213° |
| 2026-05-06 11:29 | -30.96422 | -56.71828 | 39988 ft | 436 kts | 213° |
| 2026-05-06 11:30 | -31.02088 | -56.74354 | 39979 ft | 436 kts | 213° |
| 2026-05-06 11:30 | -31.07749 | -56.76887 | 39981 ft | 435 kts | 213° |
| 2026-05-06 11:31 | -31.13386 | -56.79413 | 39981 ft | 434 kts | 213° |
| 2026-05-06 11:31 | -31.18987 | -56.81928 | 39979 ft | 434 kts | 213° |
| 2026-05-06 11:32 | -31.24656 | -56.84478 | 39986 ft | 434 kts | 213° |
| 2026-05-06 11:32 | -31.30289 | -56.87015 | 39976 ft | 434 kts | 213° |
| 2026-05-06 11:33 | -31.35923 | -56.89553 | 39980 ft | 433 kts | 213° |
| 2026-05-06 11:33 | -31.41505 | -56.92070 | 39976 ft | 432 kts | 213° |
| 2026-05-06 11:34 | -31.47116 | -56.94605 | 39980 ft | 432 kts | 213° |
| 2026-05-06 11:34 | -31.52727 | -56.97145 | 39971 ft | 432 kts | 213° |
| 2026-05-06 11:35 | -31.58337 | -56.99687 | 39976 ft | 432 kts | 213° |
| 2026-05-06 11:35 | -31.63936 | -57.02224 | 39974 ft | 429 kts | 213° |
| 2026-05-06 11:36 | -31.69490 | -57.04741 | 39974 ft | 427 kts | 213° |
| 2026-05-06 11:36 | -31.75036 | -57.07266 | 39966 ft | 427 kts | 213° |
| 2026-05-06 11:37 | -31.80578 | -57.09800 | 39966 ft | 427 kts | 214° |
| 2026-05-06 11:37 | -31.86064 | -57.12434 | 39966 ft | 426 kts | 215° |
| 2026-05-06 11:38 | -31.91543 | -57.15113 | 39966 ft | 427 kts | 214° |
| 2026-05-06 11:38 | -31.97082 | -57.17716 | 39960 ft | 429 kts | 213° |
| 2026-05-06 11:39 | -32.02653 | -57.20247 | 39961 ft | 429 kts | 213° |
| 2026-05-06 11:39 | -32.08228 | -57.22789 | 39961 ft | 429 kts | 213° |
| 2026-05-06 11:40 | -32.13757 | -57.25331 | 39980 ft | 429 kts | 213° |
| 2026-05-06 11:40 | -32.19326 | -57.27901 | 39950 ft | 430 kts | 213° |
| 2026-05-06 11:41 | -32.24909 | -57.30481 | 39963 ft | 431 kts | 213° |
| 2026-05-06 11:41 | -32.30488 | -57.33062 | 39953 ft | 431 kts | 213° |
| 2026-05-06 11:42 | -32.36064 | -57.35644 | 39961 ft | 430 kts | 213° |
| 2026-05-06 11:42 | -32.41642 | -57.38233 | 39965 ft | 431 kts | 213° |
| 2026-05-06 11:43 | -32.47241 | -57.40836 | 39949 ft | 434 kts | 213° |
| 2026-05-06 11:43 | -32.52863 | -57.43451 | 39950 ft | 434 kts | 213° |
| 2026-05-06 11:44 | -32.61304 | -57.47379 | 39952 ft | 434 kts | 213° |
| 2026-05-06 11:44 | -32.66932 | -57.50005 | 39964 ft | 435 kts | 213° |
| 2026-05-06 11:45 | -32.72566 | -57.52639 | 39946 ft | 436 kts | 213° |
| 2026-05-06 11:45 | -32.78203 | -57.55277 | 39944 ft | 436 kts | 213° |
| 2026-05-06 11:46 | -32.83850 | -57.57922 | 39946 ft | 436 kts | 213° |
| 2026-05-06 11:46 | -32.89493 | -57.60569 | 39942 ft | 436 kts | 213° |
| 2026-05-06 11:47 | -32.95099 | -57.63204 | 39943 ft | 436 kts | 213° |
| 2026-05-06 11:47 | -33.00742 | -57.65859 | 39947 ft | 437 kts | 213° |
| 2026-05-06 11:48 | -33.06409 | -57.68533 | 39941 ft | 439 kts | 213° |
| 2026-05-06 11:48 | -33.12105 | -57.71220 | 39936 ft | 440 kts | 213° |
| 2026-05-06 11:49 | -33.17799 | -57.73907 | 39936 ft | 440 kts | 213° |
| 2026-05-06 11:49 | -33.23488 | -57.76598 | 39937 ft | 440 kts | 213° |
| 2026-05-06 11:50 | -33.29176 | -57.79292 | 39937 ft | 440 kts | 213° |
| 2026-05-06 11:50 | -33.34869 | -57.81992 | 39931 ft | 440 kts | 213° |
| 2026-05-06 11:51 | -33.40531 | -57.84679 | 39283 ft | 436 kts | 213° |
| 2026-05-06 11:51 | -33.43356 | -57.86025 | 38504 ft | 438 kts | 213° |
| 2026-05-06 11:51 | -33.46193 | -57.87383 | 37641 ft | 440 kts | 213° |
| 2026-05-06 11:52 | -33.49041 | -57.88745 | 36942 ft | 439 kts | 212° |
| 2026-05-06 11:52 | -33.51874 | -57.90096 | 36284 ft | 438 kts | 212° |
| 2026-05-06 11:52 | -33.54712 | -57.91440 | 35579 ft | 439 kts | 212° |
| 2026-05-06 11:52 | -33.57563 | -57.92765 | 34868 ft | 440 kts | 211° |
| 2026-05-06 11:53 | -33.60422 | -57.94104 | 34099 ft | 443 kts | 211° |
| 2026-05-06 11:53 | -33.63302 | -57.95466 | 33226 ft | 446 kts | 211° |
| 2026-05-06 11:53 | -33.66195 | -57.96841 | 32388 ft | 448 kts | 211° |
| 2026-05-06 11:53 | -33.69097 | -57.98225 | 31550 ft | 450 kts | 210° |
| 2026-05-06 11:54 | -33.71975 | -57.99598 | 30719 ft | 453 kts | 210° |
| 2026-05-06 11:54 | -33.74921 | -58.01005 | 29781 ft | 457 kts | 210° |
| 2026-05-06 11:54 | -33.77879 | -58.02415 | 29001 ft | 456 kts | 210° |
| 2026-05-06 11:54 | -33.80817 | -58.03815 | 28318 ft | 452 kts | 210° |
| 2026-05-06 11:55 | -33.83735 | -58.05208 | 27663 ft | 449 kts | 210° |
| 2026-05-06 11:55 | -33.86626 | -58.06593 | 27006 ft | 445 kts | 210° |
| 2026-05-06 11:55 | -33.89489 | -58.07966 | 26374 ft | 442 kts | 210° |
| 2026-05-06 11:55 | -33.92335 | -58.09332 | 25729 ft | 439 kts | 210° |
| 2026-05-06 11:56 | -33.95162 | -58.10691 | 25104 ft | 436 kts | 210° |
| 2026-05-06 11:56 | -33.97967 | -58.12041 | 24473 ft | 433 kts | 209° |
| 2026-05-06 11:56 | -34.00761 | -58.13386 | 23832 ft | 431 kts | 209° |
| 2026-05-06 11:56 | -34.03538 | -58.14725 | 23151 ft | 429 kts | 209° |
| 2026-05-06 11:57 | -34.06297 | -58.16054 | 22481 ft | 425 kts | 209° |
| 2026-05-06 11:57 | -34.09029 | -58.17370 | 21841 ft | 420 kts | 209° |
| 2026-05-06 11:57 | -34.10857 | -58.18253 | 21437 ft | 417 kts | 209° |
| 2026-05-06 11:57 | -34.13537 | -58.19547 | 20820 ft | 413 kts | 209° |
| 2026-05-06 11:58 | -34.16181 | -58.20866 | 20209 ft | 408 kts | 212° |
| 2026-05-06 11:58 | -34.18570 | -58.22597 | 19569 ft | 396 kts | 225° |
| 2026-05-06 11:58 | -34.20576 | -58.24819 | 18946 ft | 388 kts | 231° |
| 2026-05-06 11:58 | -34.22401 | -58.27198 | 18354 ft | 384 kts | 234° |
| 2026-05-06 11:59 | -34.24128 | -58.29624 | 17840 ft | 376 kts | 235° |
| 2026-05-06 11:59 | -34.25766 | -58.31972 | 17565 ft | 364 kts | 236° |
| 2026-05-06 11:59 | -34.27377 | -58.34270 | 17304 ft | 352 kts | 236° |
| 2026-05-06 11:59 | -34.28944 | -58.36480 | 17037 ft | 341 kts | 236° |
| 2026-05-06 12:00 | -34.30471 | -58.38609 | 16774 ft | 330 kts | 236° |
| 2026-05-06 12:00 | -34.31960 | -58.40660 | 16551 ft | 319 kts | 235° |
| 2026-05-06 12:00 | -34.33407 | -58.42640 | 16333 ft | 309 kts | 235° |
| 2026-05-06 12:00 | -34.34807 | -58.44548 | 16107 ft | 298 kts | 235° |
| 2026-05-06 12:01 | -34.36164 | -58.46393 | 15924 ft | 288 kts | 235° |
| 2026-05-06 12:01 | -34.37476 | -58.48175 | 15730 ft | 279 kts | 236° |
| 2026-05-06 12:01 | -34.38774 | -58.49950 | 15096 ft | 286 kts | 236° |
| 2026-05-06 12:01 | -34.40111 | -58.51802 | 14364 ft | 297 kts | 235° |
| 2026-05-06 12:02 | -34.41481 | -58.53702 | 13826 ft | 301 kts | 235° |
| 2026-05-06 12:02 | -34.42864 | -58.55610 | 13296 ft | 302 kts | 234° |
| 2026-05-06 12:02 | -34.44260 | -58.57515 | 12743 ft | 303 kts | 233° |
| 2026-05-06 12:02 | -34.45818 | -58.59263 | 12244 ft | 306 kts | 226° |
| 2026-05-06 12:03 | -34.47422 | -58.60881 | 11592 ft | 298 kts | 225° |
| 2026-05-06 12:03 | -34.49019 | -58.62481 | 10719 ft | 298 kts | 225° |
| 2026-05-06 12:03 | -34.50615 | -58.64086 | 9882 ft | 298 kts | 224° |
| 2026-05-06 12:03 | -34.52212 | -58.65697 | 9105 ft | 301 kts | 224° |
| 2026-05-06 12:04 | -34.53812 | -58.67318 | 8739 ft | 296 kts | 225° |
| 2026-05-06 12:04 | -34.55364 | -58.68888 | 8491 ft | 287 kts | 225° |
| 2026-05-06 12:04 | -34.56884 | -58.70426 | 8151 ft | 282 kts | 225° |
| 2026-05-06 12:04 | -34.58385 | -58.71947 | 7806 ft | 278 kts | 225° |
| 2026-05-06 12:05 | -34.59844 | -58.73423 | 7628 ft | 268 kts | 225° |
| 2026-05-06 12:05 | -34.61254 | -58.74847 | 7459 ft | 258 kts | 225° |
| 2026-05-06 12:05 | -34.62591 | -58.76198 | 7295 ft | 249 kts | 225° |
| 2026-05-06 12:05 | -34.63894 | -58.77515 | 7162 ft | 239 kts | 226° |
| 2026-05-06 12:06 | -34.65162 | -58.78796 | 7029 ft | 229 kts | 226° |
| 2026-05-06 12:06 | -34.66346 | -58.79994 | 6888 ft | 220 kts | 226° |
| 2026-05-06 12:06 | -34.67498 | -58.81160 | 6708 ft | 213 kts | 226° |
| 2026-05-06 12:06 | -34.68624 | -58.82304 | 6464 ft | 209 kts | 227° |
| 2026-05-06 12:07 | -34.69737 | -58.83437 | 6180 ft | 208 kts | 227° |
| 2026-05-06 12:07 | -34.70842 | -58.84563 | 5886 ft | 207 kts | 227° |
| 2026-05-06 12:07 | -34.71939 | -58.85680 | 5619 ft | 204 kts | 227° |
| 2026-05-06 12:07 | -34.73027 | -58.86787 | 5301 ft | 204 kts | 227° |
| 2026-05-06 12:08 | -34.74118 | -58.87900 | 4971 ft | 205 kts | 227° |
| 2026-05-06 12:08 | -34.75207 | -58.89010 | 4670 ft | 204 kts | 227° |
| 2026-05-06 12:08 | -34.76332 | -58.90066 | 4323 ft | 207 kts | 219° |
| 2026-05-06 12:08 | -34.77687 | -58.90688 | 3959 ft | 213 kts | 191° |
| 2026-05-06 12:09 | -34.79107 | -58.90252 | 3587 ft | 215 kts | 147° |
| 2026-05-06 12:09 | -34.80049 | -58.88910 | 3229 ft | 205 kts | 120° |
| 2026-05-06 12:09 | -34.80745 | -58.87389 | 2802 ft | 202 kts | 116° |
| 2026-05-06 12:09 | -34.81472 | -58.85967 | 2390 ft | 202 kts | 132° |
| 2026-05-06 12:10 | -34.82700 | -58.85168 | 2190 ft | 203 kts | 162° |
| 2026-05-06 12:10 | -34.83799 | -58.84099 | 2179 ft | 205 kts | 121° |
| 2026-05-06 12:10 | -34.84039 | -58.82553 | 2170 ft | 172 kts | 73° |
| 2026-05-06 12:10 | -34.83420 | -58.81510 | 2175 ft | 144 kts | 33° |
| 2026-05-06 12:11 | -34.82608 | -58.80854 | 2177 ft | 138 kts | 31° |
| 2026-05-06 12:11 | -34.81805 | -58.80216 | 2186 ft | 138 kts | 32° |
| 2026-05-06 12:11 | -34.81070 | -58.79449 | 2188 ft | 141 kts | 44° |
| 2026-05-06 12:11 | -34.80470 | -58.78512 | 2183 ft | 138 kts | 53° |
| 2026-05-06 12:12 | -34.79994 | -58.77499 | 2186 ft | 138 kts | 60° |
| 2026-05-06 12:12 | -34.79612 | -58.76427 | 2188 ft | 138 kts | 65° |
| 2026-05-06 12:12 | -34.79287 | -58.75322 | 2191 ft | 139 kts | 67° |
| 2026-05-06 12:12 | -34.78997 | -58.74196 | 2189 ft | 140 kts | 69° |
| 2026-05-06 12:13 | -34.78848 | -58.73015 | 2194 ft | 144 kts | 87° |
| 2026-05-06 12:13 | -34.78972 | -58.71797 | 2194 ft | 146 kts | 98° |
| 2026-05-06 12:13 | -34.79186 | -58.70589 | 2196 ft | 147 kts | 98° |
| 2026-05-06 12:13 | -34.79409 | -58.69374 | 2193 ft | 148 kts | 98° |
| 2026-05-06 12:14 | -34.79630 | -58.68151 | 2138 ft | 149 kts | 97° |
| 2026-05-06 12:14 | -34.79840 | -58.66923 | 1946 ft | 147 kts | 96° |
| 2026-05-06 12:14 | -34.80053 | -58.65718 | 1750 ft | 145 kts | 97° |
| 2026-05-06 12:14 | -34.80265 | -58.64539 | 1559 ft | 141 kts | 98° |
| 2026-05-06 12:15 | -34.80472 | -58.63383 | 1374 ft | 139 kts | 98° |
| 2026-05-06 12:15 | -34.80675 | -58.62243 | 1192 ft | 137 kts | 99° |
| 2026-05-06 12:15 | -34.80877 | -58.61108 | 1012 ft | 137 kts | 99° |
| 2026-05-06 12:15 | -34.81078 | -58.59980 | 831 ft | 135 kts | 100° |
| 2026-05-06 12:16 | -34.81276 | -58.58881 | 679 ft | 132 kts | 101° |
| 2026-05-06 12:16 | -34.81472 | -58.57782 | 505 ft | 133 kts | 99° |
| 2026-05-06 12:16 | -34.81664 | -58.56695 | 327 ft | 131 kts | 102° |
| 2026-05-06 12:16 | -34.81859 | -58.55608 | 161 ft | 133 kts | 102° |
| 2026-05-06 12:17 | -34.82047 | -58.54541 | 72 ft | 121 kts | 103° |
| 2026-05-06 12:17 | -34.82180 | -58.53791 | 71 ft | 50 kts | 103° |
| 2026-05-06 12:17 | -34.82213 | -58.53613 | 70 ft | 16 kts | 102° |
| 2026-05-06 12:17 | -34.82227 | -58.53485 | 69 ft | 12 kts | 69° |
| 2026-05-06 12:18 | -34.82176 | -58.53474 | 70 ft | 9 kts | 340° |
| 2026-05-06 12:18 | -34.82107 | -58.53506 | 69 ft | 11 kts | 335° |
| 2026-05-06 12:18 | -34.82033 | -58.53556 | 66 ft | 13 kts | 332° |
| 2026-05-06 12:18 | -34.81943 | -58.53607 | 67 ft | 14 kts | 335° |
| 2026-05-06 12:19 | -34.81848 | -58.53662 | 71 ft | 16 kts | 335° |
| 2026-05-06 12:19 | -34.81742 | -58.53726 | 70 ft | 16 kts | 328° |
| 2026-05-06 12:19 | -34.81676 | -58.53787 | 67 ft | 10 kts | 328° |
| 2026-05-06 12:19 | -34.81636 | -58.53814 | 66 ft | 4 kts | 311° |
| 2026-05-06 12:20 | -34.81616 | -58.53852 | 67 ft | 6 kts | 303° |
| 2026-05-06 12:20 | -34.81589 | -58.53896 | 64 ft | 6 kts | 317° |
| 2026-05-06 12:20 | -34.81569 | -58.53918 | 66 ft | 2 kts | 317° |
| 2026-05-06 12:20 | -34.81553 | -58.53934 | 64 ft | 2 kts | 320° |
| 2026-05-06 12:21 | -34.81549 | -58.53939 | 67 ft | 0 kts | 320° |